< < Back
Terminal Aerodrome Forecast


Current Version              Previous Versions:   1  2  3  4  5  6  7  8  9  

Terminal Aerodrome Forecast

950
FTUS44 KMRX 172320
TAFTYS
TAF
KTYS 172320Z 1800/1824 03003KT P6SM BKN250
     FM181200 05005KT P6SM SCT050 BKN120
     FM181900 03007KT P6SM BKN050=



Latest METAR

453
SAUS80 KWBC 190400
MTRTYS
METAR KTYS 190353Z 02006KT 10SM FEW080 SCT150 OVC250 13/04 A3016 RMK AO2
SLP208 T01330044


USA.gov is the U.S. government's official web portal to all federal, state and local government web resources and services.